Hatboro, PA

4:49 PM EST on March 06, 2015 (GMT -0500)
Doylestown | Change Station
CLOSE
Current Station
Airport
Location: Doylestown,
Elevation: 394 ft
Nearby Weather Stations

Elev 394 ft 40.33 °N, 75.12 °W | Updated 23 hours ago

Clear
Clear
19 °F
Feels Like 19 °F
N
1
Wind Variable Wind from SW
Gusts mph

Today
High -- | Low -- °F
--% Chance of Precip.
Yesterday
High -- | Low -- °F
Precip. -- in
6:26 AM 5:57 PM
Full, 99% visible
Pressure 30.24 in
Visibility 3.0 miles
Clouds Overcast 2900 ft
Dew Point 7 °F
Humidity 61%
Rainfall 0.00 in
Snow Depth Not available.
UV 0 out of 12
Pollen .60 out of 12
Air Quality Not available.
Flu Activity Not available.
METAR KDYL 052226Z AUTO 32007KT 3SM -SN BR OVC029 M08/M09 A3024 RMK AO2 P0000 T10781089

More Conditions Fewer Conditions

Pressure 30.24 in
Visibility 3.0 miles
Clouds Overcast 2900 ft
Dew Point 7 °F
Humidity 61%
Rainfall 0.00 in
Snow Depth Not available.
UV 0 out of 12
Pollen .60 out of 12
Air Quality Not available.
Flu Activity Not available.
METAR KDYL 052226Z AUTO 32007KT 3SM -SN BR OVC029 M08/M09 A3024 RMK AO2 P0000 T10781089

More Conditions Fewer Conditions

10-Day Weather Forecast

Almanac

Astronomy

Mar. 06, 2015 Rise Set
Actual Time
Civil Twilight
Nautical Twilight
Astronomical Twilight
Moon
Length of Visible Light
Length of Day
Tomorrow will be .
, % of the Moon is Illuminated

Today's Extremes

State Highs State Lows

Community

WunderPhotos

Upload Photos

1,803,406 photos uploaded!

WunderBlogs® & News

Nearby

Air Quality

  Air Quality AQ Index Pollutant
Not available.

Snow Depth

Station Depth Elevation

Earthquake Activity

City Distance Mag. Time & Date
Minimum magnitude displayed is 2.5.

Coastal Water Temperatures

Place Temperature

Nearby Weather Stations